Pagina principale
METAR-TAF:

METAR-TAF

Aeroporti :

Aeroporto di Albenga

Albenga, Italia

latitudine: 44-03N, longitudine: 008-07E, altezza: 45 m

Osservazione

Il bollettino è stato emesso 1 ora e 0 minuti fa, alle 10:50 UTC
Vento 6 kt da est, variando fra nord/nord-est e sud
Temperature 29°C
Umidità 35%
Pressione 1024 hPa
Visibilità 10 km o più
nessuna nube inferiore a 1500 m e nessun cumulonembo

METAR: LIMG 191050Z 10006KT 020V190 CAVOK 29/12 Q1024

Ora: 13:50 (11:50 UTC)

Previsione

Il bollettino è stato emesso 50 minuti fa, alle 11:00 UTC
Previsione valida dal 19 alle 12 UTC al 20 alle 12 UTC
Vento 10 kt da est
Visibilità 10 km o più
Nubi sparse ad un'altezza di 6000 ft
Evoluzione graduale
dal 19 alle 16 UTC al 19 alle 18 UTC
Vento 5 kt da direzioni variabili

TAF: LIMG 191100Z 1912/2012 10010KT 9999 SCT060 BECMG 1916/1918 VRB05KT

Osservazioni e previsioni meteorologiche di più di 4000 aeroporti (messaggi METAR e TAF).

Le stazioni disponibili sono rappresentate dai dischi gialli e rossi sulla carta.

Puntare il mouse per vedere il nome della stazione.

Clicca sopra per visualizzare le osservazioni e previsioni meteorologiche.

Per cambiare la mappa : fare clic sui pulsanti verdi con una croce nera per ingrandire, il pulsante verde con un trattino per diminuire, o sulla freccia verde per le mappe adiacenti.


METAR-TAF: